Time;durP1;ratioP1;P1;durP2;ratioP2;P2;SDS_P1;SDS_P2;PMS_P1;PMS_P2;Temp;Humidity;BMP_temperature;BMP_pressure;BME280_temperature;BME280_humidity;BME280_pressure;Samples;Min_cycle;Max_cycle;Signal;HPM_P1;HPM_P2
2021/04/26 00:02:14;;;;;;;5.60;2.95;;;5.60;72.30;;;;;;5013786;28;20160;-87
2021/04/26 00:04:40;;;;;;;10.05;3.95;;;5.60;73.50;;;;;;5031299;28;20057;-89
2021/04/26 00:07:07;;;;;;;9.70;3.42;;;5.50;74.70;;;;;;5031711;28;20112;-88
2021/04/26 00:09:35;;;;;;;6.35;3.30;;;5.50;75.60;;;;;;5031453;28;20128;-88
2021/04/26 00:12:05;;;;;;;9.05;3.88;;;5.50;75.70;;;;;;5028672;28;20129;-89
2021/04/26 00:14:32;;;;;;;7.18;2.90;;;5.50;76.20;;;;;;5031418;28;20041;-88
2021/04/26 00:16:58;;;;;;;7.05;3.40;;;5.40;78.20;;;;;;5036729;28;20116;-87
2021/04/26 00:19:25;;;;;;;13.90;3.60;;;5.40;80.50;;;;;;5028750;28;20060;-90
2021/04/26 00:21:51;;;;;;;6.85;3.28;;;5.40;79.70;;;;;;5043163;28;20041;-87
2021/04/26 00:24:18;;;;;;;9.25;3.08;;;5.40;81.10;;;;;;5015742;28;20072;-89
2021/04/26 00:26:44;;;;;;;9.65;3.65;;;5.40;82.40;;;;;;5016230;28;20054;-87
2021/04/26 00:29:11;;;;;;;8.27;3.83;;;5.40;82.10;;;;;;5031084;28;20179;-88
2021/04/26 00:31:39;;;;;;;7.57;3.30;;;5.40;84.00;;;;;;5025091;28;20085;-88
2021/04/26 00:34:06;;;;;;;5.85;3.38;;;5.30;85.50;;;;;;5016183;28;20411;-88
2021/04/26 00:36:33;;;;;;;8.38;3.58;;;5.30;87.80;;;;;;5015912;28;20056;-87
2021/04/26 00:38:59;;;;;;;6.07;2.95;;;5.30;88.40;;;;;;5034029;28;20200;-88
2021/04/26 00:41:26;;;;;;;9.00;3.53;;;5.20;90.30;;;;;;5019414;28;20076;-90
2021/04/26 00:43:52;;;;;;;6.22;3.53;;;5.20;91.70;;;;;;5016835;28;20053;-89
2021/04/26 00:46:19;;;;;;;10.98;3.53;;;5.20;91.60;;;;;;5036538;28;20049;-89
2021/04/26 00:48:47;;;;;;;5.38;3.50;;;5.10;92.70;;;;;;5033301;28;20397;-88
2021/04/26 00:51:13;;;;;;;11.10;4.00;;;5.10;93.20;;;;;;4997730;28;20479;-88
2021/04/26 00:53:40;;;;;;;6.22;3.55;;;5.00;95.20;;;;;;5031495;28;20132;-87
2021/04/26 00:56:06;;;;;;;7.32;3.88;;;5.00;96.10;;;;;;5035758;28;20081;-89
2021/04/26 00:58:33;;;;;;;7.97;3.75;;;4.90;95.90;;;;;;5017899;28;20391;-91
2021/04/26 01:01:04;;;;;;;9.38;3.58;;;4.90;98.20;;;;;;5018016;28;20140;-88
2021/04/26 01:03:31;;;;;;;6.50;3.65;;;4.90;98.00;;;;;;5011659;28;20053;-88
2021/04/26 01:05:57;;;;;;;8.05;3.42;;;4.90;99.00;;;;;;5034155;28;20129;-88
2021/04/26 01:08:24;;;;;;;7.57;3.60;;;4.80;99.80;;;;;;5013703;28;20216;-88
2021/04/26 01:10:54;;;;;;;7.68;3.63;;;4.80;99.90;;;;;;5034643;28;20063;-88
2021/04/26 01:13:43;;;;;;;10.25;4.20;;;4.70;99.90;;;;;;5029301;28;20085;-88
2021/04/26 01:16:27;;;;;;;7.65;4.20;;;4.50;99.90;;;;;;5026933;28;20061;-88
2021/04/26 01:19:35;;;;;;;7.03;4.28;;;4.40;99.90;;;;;;5013951;28;20085;-89
2021/04/26 01:22:33;;;;;;;7.55;3.80;;;4.30;99.90;;;;;;5029347;28;20053;-88
2021/04/26 01:25:11;;;;;;;12.77;4.07;;;4.30;99.90;;;;;;5015602;28;20046;-88
2021/04/26 01:27:46;;;;;;;7.88;4.57;;;4.30;99.90;;;;;;5034464;28;20407;-88
2021/04/26 01:30:27;;;;;;;8.18;4.15;;;4.20;99.90;;;;;;5034403;28;20104;-87
2021/04/26 01:33:21;;;;;;;7.88;4.03;;;4.20;99.90;;;;;;5035326;28;20056;-88
2021/04/26 01:35:48;;;;;;;8.93;3.80;;;4.20;99.90;;;;;;5014502;28;20101;-90
2021/04/26 01:38:27;;;;;;;9.32;4.05;;;4.20;99.90;;;;;;5034217;28;20053;-87
2021/04/26 01:40:57;;;;;;;13.68;4.35;;;4.20;99.90;;;;;;5016903;28;20049;-88
2021/04/26 01:43:28;;;;;;;10.63;4.47;;;4.20;99.90;;;;;;5033800;28;20184;-89
2021/04/26 01:45:59;;;;;;;11.95;4.43;;;4.20;99.90;;;;;;5033100;28;20037;-88
2021/04/26 01:48:32;;;;;;;10.20;4.20;;;4.20;99.90;;;;;;5016002;28;20193;-88
2021/04/26 01:51:00;;;;;;;5.32;3.70;;;4.10;99.90;;;;;;5024684;28;20063;-88
2021/04/26 01:53:28;;;;;;;10.27;4.95;;;4.00;99.90;;;;;;5022028;28;20164;-87
2021/04/26 01:55:59;;;;;;;12.43;4.60;;;4.00;99.90;;;;;;5025283;28;20332;-88
2021/04/26 01:58:26;;;;;;;6.93;4.35;;;3.90;99.90;;;;;;5032173;28;20057;-86
2021/04/26 02:00:54;;;;;;;10.02;4.18;;;3.90;99.90;;;;;;5011025;28;20079;-89
2021/04/26 02:03:22;;;;;;;11.75;4.60;;;4.00;99.90;;;;;;5016119;28;20140;-88
2021/04/26 02:05:50;;;;;;;13.90;4.53;;;3.90;99.90;;;;;;5013599;28;20049;-87
2021/04/26 02:08:17;;;;;;;13.43;4.80;;;4.00;99.90;;;;;;5023036;28;20042;-87
2021/04/26 02:10:44;;;;;;;8.77;4.35;;;3.90;99.90;;;;;;5013467;28;20052;-89
2021/04/26 02:13:14;;;;;;;9.73;4.30;;;3.80;99.90;;;;;;5020558;28;20072;-87
2021/04/26 02:15:44;;;;;;;10.23;4.60;;;3.70;99.90;;;;;;5037261;28;20041;-88
2021/04/26 02:18:11;;;;;;;7.35;4.80;;;3.60;99.90;;;;;;5032595;28;20081;-90
2021/04/26 02:20:37;;;;;;;12.40;5.40;;;3.50;99.90;;;;;;5015965;28;20367;-90
2021/04/26 02:23:09;;;;;;;9.52;5.35;;;3.40;99.90;;;;;;5032849;28;20459;-89
2021/04/26 02:25:38;;;;;;;8.07;4.80;;;3.50;99.90;;;;;;5014224;28;20060;-87
2021/04/26 02:28:05;;;;;;;12.13;5.45;;;3.50;99.90;;;;;;5015737;28;20087;-90
2021/04/26 02:30:32;;;;;;;13.57;5.55;;;3.60;99.90;;;;;;5029502;28;20047;-88
2021/04/26 02:33:07;;;;;;;12.73;4.60;;;3.60;99.90;;;;;;5032288;28;20132;-88
2021/04/26 02:35:47;;;;;;;11.23;5.00;;;3.50;99.90;;;;;;5030924;28;20104;-89
2021/04/26 02:38:28;;;;;;;10.52;5.47;;;3.50;99.90;;;;;;5031842;28;20143;-87
2021/04/26 02:41:06;;;;;;;12.13;5.03;;;3.40;99.90;;;;;;5015400;28;20136;-91
2021/04/26 02:43:37;;;;;;;10.25;5.10;;;3.40;99.90;;;;;;5032575;28;20136;-88
2021/04/26 02:46:05;;;;;;;17.70;5.30;;;3.40;99.90;;;;;;5029854;28;20473;-89
2021/04/26 02:48:32;;;;;;;14.25;5.70;;;3.40;99.90;;;;;;5014282;28;20415;-89
2021/04/26 02:51:01;;;;;;;12.50;5.50;;;3.30;99.90;;;;;;5033269;28;20502;-89
2021/04/26 02:53:30;;;;;;;13.77;6.40;;;3.30;99.90;;;;;;5023607;28;20360;-88
2021/04/26 02:56:08;;;;;;;15.52;5.63;;;3.30;99.90;;;;;;5028162;28;20103;-88
2021/04/26 02:58:37;;;;;;;9.75;5.40;;;3.30;99.90;;;;;;5032386;28;20045;-89
2021/04/26 03:01:14;;;;;;;11.38;5.85;;;3.30;99.90;;;;;;5032117;28;20522;-90
2021/04/26 03:03:44;;;;;;;11.20;5.95;;;3.30;99.90;;;;;;5012492;28;20147;-89
2021/04/26 03:06:13;;;;;;;11.18;5.43;;;3.20;99.90;;;;;;4999847;28;20049;-88
2021/04/26 03:08:39;;;;;;;16.15;6.30;;;3.20;99.90;;;;;;5030968;28;20129;-89
2021/04/26 03:11:11;;;;;;;11.10;7.30;;;3.20;99.90;;;;;;5014557;28;20148;-89
2021/04/26 03:13:40;;;;;;;17.65;8.30;;;3.10;99.90;;;;;;5026496;28;20136;-88
2021/04/26 03:16:07;;;;;;;11.50;6.75;;;3.00;99.90;;;;;;5035464;28;20055;-90
2021/04/26 03:18:35;;;;;;;15.95;6.55;;;3.00;99.90;;;;;;5027373;28;20535;-89
2021/04/26 03:21:06;;;;;;;14.07;6.80;;;2.90;99.90;;;;;;5021976;28;20054;-88
2021/04/26 03:23:33;;;;;;;15.52;7.22;;;2.90;99.90;;;;;;5031926;28;20227;-89
2021/04/26 03:26:00;;;;;;;12.23;6.47;;;2.90;99.90;;;;;;4995408;28;20123;-88
2021/04/26 03:28:32;;;;;;;13.00;7.25;;;2.90;99.90;;;;;;5005495;28;20150;-89
2021/04/26 03:31:00;;;;;;;14.20;6.97;;;2.90;99.90;;;;;;5021277;28;20136;-88
2021/04/26 03:33:32;;;;;;;19.13;7.53;;;2.90;99.90;;;;;;5031793;28;20124;-89
2021/04/26 03:35:59;;;;;;;16.23;7.25;;;2.90;99.90;;;;;;4997888;28;20053;-88
2021/04/26 03:38:27;;;;;;;13.27;7.30;;;2.90;99.90;;;;;;5013278;28;20176;-86
2021/04/26 03:40:57;;;;;;;18.58;7.97;;;2.80;99.90;;;;;;5031827;28;20443;-87
2021/04/26 03:43:24;;;;;;;16.23;6.90;;;2.80;99.90;;;;;;5029525;28;20331;-87
2021/04/26 03:45:54;;;;;;;11.38;7.65;;;2.70;99.90;;;;;;5036985;28;20433;-86
2021/04/26 03:48:23;;;;;;;16.02;7.13;;;2.60;99.90;;;;;;5042079;28;20073;-87
2021/04/26 03:50:49;;;;;;;12.40;7.05;;;2.50;99.90;;;;;;5022466;28;20072;-86
2021/04/26 03:53:16;;;;;;;14.48;7.70;;;2.50;99.90;;;;;;5049410;28;20410;-87
2021/04/26 03:55:42;;;;;;;13.68;8.07;;;2.50;99.90;;;;;;5023854;28;20045;-89
2021/04/26 03:58:09;;;;;;;15.75;7.80;;;2.50;99.90;;;;;;5042350;28;20038;-88
2021/04/26 04:00:35;;;;;;;12.20;7.03;;;2.50;99.90;;;;;;5020842;28;20125;-89
2021/04/26 04:03:09;;;;;;;16.40;7.80;;;2.50;99.90;;;;;;4996104;28;20041;-89
2021/04/26 04:05:37;;;;;;;14.00;8.02;;;2.50;99.90;;;;;;5013114;28;20518;-90
2021/04/26 04:08:07;;;;;;;17.42;8.25;;;2.50;99.90;;;;;;5013491;28;20061;-88
2021/04/26 04:10:34;;;;;;;15.05;8.35;;;2.50;99.90;;;;;;4994177;28;20169;-89
2021/04/26 04:13:01;;;;;;;18.88;8.95;;;2.50;99.90;;;;;;4994970;28;20426;-90
2021/04/26 04:15:28;;;;;;;15.63;8.57;;;2.50;99.90;;;;;;4998463;28;20100;-89
2021/04/26 04:17:54;;;;;;;15.10;8.18;;;2.40;99.90;;;;;;4998470;28;20088;-89
2021/04/26 04:20:20;;;;;;;18.00;8.85;;;2.40;99.90;;;;;;5015361;28;20064;-89
2021/04/26 04:22:47;;;;;;;19.02;8.75;;;2.40;99.90;;;;;;4996088;28;20053;-88
2021/04/26 04:25:13;;;;;;;17.08;8.13;;;2.50;99.90;;;;;;4998645;28;20124;-89
2021/04/26 04:27:40;;;;;;;17.80;9.10;;;2.50;99.90;;;;;;5010398;28;20483;-88
2021/04/26 04:30:09;;;;;;;13.05;7.93;;;2.60;99.90;;;;;;5015395;28;20042;-87
2021/04/26 04:32:35;;;;;;;18.75;8.82;;;2.60;99.90;;;;;;5013963;28;20065;-88
2021/04/26 04:35:03;;;;;;;14.25;8.07;;;2.50;99.90;;;;;;5015241;28;20089;-89
2021/04/26 04:37:30;;;;;;;17.10;9.00;;;2.50;99.90;;;;;;4994967;28;20141;-90
2021/04/26 04:39:56;;;;;;;14.82;8.55;;;2.50;99.90;;;;;;5015750;28;20473;-88
2021/04/26 04:42:23;;;;;;;20.88;8.88;;;2.50;99.90;;;;;;4999023;28;20124;-88
2021/04/26 04:44:49;;;;;;;18.58;8.50;;;2.50;99.90;;;;;;4996516;28;20068;-89
2021/04/26 04:47:16;;;;;;;17.58;8.45;;;2.50;99.90;;;;;;4996726;28;20081;-85
2021/04/26 04:49:42;;;;;;;15.30;8.65;;;2.50;99.90;;;;;;5015014;28;20125;-86
2021/04/26 04:52:09;;;;;;;21.52;9.35;;;2.50;99.90;;;;;;5015389;28;20086;-87
2021/04/26 04:54:37;;;;;;;17.55;8.93;;;2.60;99.90;;;;;;4997885;28;20069;-85
2021/04/26 04:57:03;;;;;;;14.95;8.32;;;2.60;99.90;;;;;;4990566;28;20137;-85
2021/04/26 04:59:29;;;;;;;18.38;8.63;;;2.60;99.90;;;;;;5000304;28;20084;-88
2021/04/26 05:01:58;;;;;;;22.83;8.70;;;2.50;99.90;;;;;;5035122;28;20085;-87
2021/04/26 05:04:25;;;;;;;16.60;8.27;;;2.50;99.90;;;;;;5034884;28;20091;-87
2021/04/26 05:06:53;;;;;;;16.50;8.48;;;2.40;99.90;;;;;;5011498;28;20045;-88
2021/04/26 05:09:22;;;;;;;18.13;8.68;;;2.40;99.90;;;;;;5008655;28;20200;-88
2021/04/26 05:11:48;;;;;;;15.63;8.75;;;2.40;99.90;;;;;;5011700;28;20139;-87
2021/04/26 05:14:15;;;;;;;17.77;8.25;;;2.40;99.90;;;;;;5009719;28;20128;-89
2021/04/26 05:16:41;;;;;;;16.92;8.60;;;2.40;99.90;;;;;;5003064;28;20362;-92
2021/04/26 05:19:07;;;;;;;16.95;8.68;;;2.40;99.90;;;;;;5040378;28;20045;-93
2021/04/26 05:21:34;;;;;;;20.55;8.68;;;2.40;99.90;;;;;;5045783;28;20092;-93
2021/04/26 05:24:00;;;;;;;16.90;8.15;;;2.50;99.90;;;;;;5020077;28;20148;-93
2021/04/26 05:26:29;;;;;;;16.95;7.82;;;2.60;99.90;;;;;;5021618;28;20128;-91
2021/04/26 05:28:58;;;;;;;18.92;7.85;;;2.70;99.90;;;;;;5034092;28;20041;-91
2021/04/26 05:31:24;;;;;;;17.55;7.82;;;2.90;99.90;;;;;;5017999;28;20073;-92
2021/04/26 05:33:50;;;;;;;15.88;7.93;;;3.10;99.90;;;;;;5020103;28;20049;-91
2021/04/26 05:36:20;;;;;;;15.23;7.47;;;3.30;99.90;;;;;;5050622;28;20107;-91
2021/04/26 05:38:47;;;;;;;11.77;6.53;;;3.50;99.90;;;;;;5049335;28;20065;-93
2021/04/26 05:41:15;;;;;;;15.50;8.13;;;3.60;99.90;;;;;;5028124;28;20053;-91
2021/04/26 05:43:41;;;;;;;14.32;7.43;;;3.80;99.90;;;;;;5025944;28;20045;-91
2021/04/26 05:46:08;;;;;;;14.43;7.13;;;4.00;99.90;;;;;;5027221;28;20107;-90
2021/04/26 05:48:34;;;;;;;16.45;7.10;;;4.20;99.90;;;;;;5034030;28;20073;-90
2021/04/26 05:51:01;;;;;;;16.60;7.18;;;4.30;99.90;;;;;;5035093;28;20104;-89
2021/04/26 05:53:28;;;;;;;15.32;6.68;;;4.40;99.90;;;;;;5021781;28;20056;-86
2021/04/26 05:55:54;;;;;;;14.15;6.65;;;4.60;99.90;;;;;;5008835;28;20077;-86
2021/04/26 05:58:21;;;;;;;11.57;6.40;;;4.70;99.90;;;;;;4999013;28;20095;-87
2021/04/26 06:00:51;;;;;;;17.98;6.55;;;4.80;99.90;;;;;;5012793;28;20405;-86
2021/04/26 06:03:17;;;;;;;14.10;6.63;;;5.10;99.90;;;;;;5015141;28;20430;-88
2021/04/26 06:05:49;;;;;;;9.02;6.10;;;5.20;99.90;;;;;;5029842;28;20049;-90
2021/04/26 06:08:17;;;;;;;15.70;7.00;;;5.40;99.90;;;;;;5013678;28;20061;-87
2021/04/26 06:10:44;;;;;;;12.60;6.30;;;5.50;99.90;;;;;;5030628;28;20057;-87
2021/04/26 06:13:11;;;;;;;12.88;6.05;;;5.60;99.90;;;;;;5032405;28;20045;-88
2021/04/26 06:15:40;;;;;;;13.05;6.25;;;5.80;98.70;;;;;;5012389;28;20046;-86
2021/04/26 06:18:14;;;;;;;11.90;5.78;;;6.00;96.50;;;;;;5029113;28;20083;-86
2021/04/26 06:20:42;;;;;;;14.75;6.38;;;6.30;96.30;;;;;;5015616;28;20083;-85
2021/04/26 06:23:09;;;;;;;11.20;5.80;;;6.60;96.00;;;;;;5012971;28;20465;-87
2021/04/26 06:25:37;;;;;;;10.10;5.78;;;6.90;92.00;;;;;;5004116;28;20152;-86
2021/04/26 06:28:04;;;;;;;12.38;5.38;;;7.20;88.90;;;;;;5028724;28;20370;-89
2021/04/26 06:30:31;;;;;;;9.95;5.90;;;7.40;87.50;;;;;;5030707;28;20362;-87
2021/04/26 06:32:59;;;;;;;10.27;5.57;;;7.60;85.60;;;;;;5030615;28;20115;-88
2021/04/26 06:35:28;;;;;;;10.23;5.57;;;7.80;83.00;;;;;;5014809;28;20042;-88
2021/04/26 06:37:58;;;;;;;10.25;5.80;;;8.00;79.00;;;;;;5032310;28;20054;-87
2021/04/26 06:40:27;;;;;;;10.07;5.30;;;7.90;80.50;;;;;;5032680;28;20053;-88
2021/04/26 06:42:53;;;;;;;13.93;6.03;;;8.00;80.80;;;;;;5014986;28;20124;-87
2021/04/26 06:45:23;;;;;;;12.02;6.10;;;8.30;77.70;;;;;;5016317;28;20057;-88
2021/04/26 06:47:53;;;;;;;11.15;5.40;;;8.50;74.90;;;;;;5028493;28;20050;-87
2021/04/26 06:50:23;;;;;;;10.27;5.60;;;8.60;74.10;;;;;;5014109;28;20091;-88
2021/04/26 06:52:54;;;;;;;9.35;6.13;;;8.50;73.20;;;;;;5029368;28;20424;-88
2021/04/26 06:55:20;;;;;;;11.98;5.93;;;8.60;73.20;;;;;;5012882;28;20520;-87
2021/04/26 06:57:51;;;;;;;8.52;5.38;;;8.70;74.00;;;;;;5013588;28;20099;-88
2021/04/26 07:00:21;;;;;;;10.48;5.88;;;9.20;73.50;;;;;;5012952;28;20378;-88
2021/04/26 07:02:49;;;;;;;11.70;5.68;;;9.20;69.60;;;;;;5020781;28;20167;-88
2021/04/26 07:05:18;;;;;;;12.05;5.28;;;9.50;68.80;;;;;;5031299;28;20065;-91
2021/04/26 07:07:45;;;;;;;8.00;5.15;;;9.90;68.20;;;;;;5011464;28;20050;-88
2021/04/26 07:10:13;;;;;;;12.65;5.75;;;10.30;66.20;;;;;;5013776;28;20124;-89
2021/04/26 07:12:39;;;;;;;10.20;4.85;;;10.30;64.30;;;;;;4997097;28;20059;-88
2021/04/26 07:15:08;;;;;;;13.82;5.57;;;10.50;64.80;;;;;;5013643;28;20137;-87
2021/04/26 07:17:35;;;;;;;10.25;5.20;;;10.40;63.70;;;;;;5030487;28;20045;-87
2021/04/26 07:20:09;;;;;;;9.80;5.22;;;10.60;64.10;;;;;;5012671;28;20057;-89
2021/04/26 07:22:35;;;;;;;9.43;4.97;;;11.00;61.80;;;;;;5031273;28;21826;-88
2021/04/26 07:25:03;;;;;;;9.38;5.05;;;11.20;60.30;;;;;;4996268;28;20065;-88
2021/04/26 07:27:32;;;;;;;12.80;5.15;;;11.40;59.80;;;;;;5013543;28;20053;-87
2021/04/26 07:29:59;;;;;;;11.23;4.93;;;12.10;58.90;;;;;;5013734;28;20477;-88
2021/04/26 07:32:26;;;;;;;9.75;5.20;;;12.20;57.50;;;;;;5031844;28;20057;-89
2021/04/26 07:34:52;;;;;;;9.63;5.53;;;12.20;57.50;;;;;;5013342;28;20137;-88
2021/04/26 07:37:20;;;;;;;8.32;4.80;;;12.30;57.80;;;;;;5014273;28;20364;-87
2021/04/26 07:39:49;;;;;;;8.85;5.50;;;12.40;57.00;;;;;;5012979;28;20115;-88
2021/04/26 07:42:16;;;;;;;7.18;4.68;;;12.40;57.10;;;;;;5012654;28;20053;-89
2021/04/26 07:44:44;;;;;;;12.30;4.93;;;12.60;57.40;;;;;;4996629;28;20049;-87
2021/04/26 07:47:11;;;;;;;8.27;4.55;;;13.10;56.30;;;;;;4998746;28;20060;-89
2021/04/26 07:49:40;;;;;;;12.38;4.88;;;13.50;55.20;;;;;;5016210;28;20045;-89
2021/04/26 07:52:26;;;;;;;8.60;4.95;;;13.80;53.10;;;;;;5031637;28;20048;-89
2021/04/26 07:54:53;;;;;;;8.98;4.90;;;13.80;52.50;;;;;;5017322;28;20049;-88
2021/04/26 07:57:21;;;;;;;11.85;4.90;;;13.70;53.00;;;;;;5016551;28;20512;-86
2021/04/26 07:59:47;;;;;;;11.95;5.10;;;13.50;53.30;;;;;;4983963;28;902321;-85
2021/04/26 08:02:14;;;;;;;13.02;5.07;;;13.20;53.60;;;;;;5012568;28;20053;-83
2021/04/26 08:04:40;;;;;;;11.55;4.78;;;13.40;53.80;;;;;;5017841;28;20057;-83
2021/04/26 08:07:07;;;;;;;9.88;4.97;;;13.80;53.50;;;;;;4997660;28;20523;-82
2021/04/26 08:09:34;;;;;;;9.07;4.72;;;13.90;53.60;;;;;;5033354;28;20053;-81
2021/04/26 08:12:03;;;;;;;11.68;5.22;;;14.10;53.40;;;;;;5014364;28;20041;-83
2021/04/26 08:14:29;;;;;;;7.75;4.93;;;14.10;51.30;;;;;;5013693;28;20119;-83
2021/04/26 08:16:56;;;;;;;7.70;4.30;;;14.20;52.50;;;;;;5013915;28;20085;-83
2021/04/26 08:19:23;;;;;;;10.48;4.80;;;14.40;51.30;;;;;;5016071;28;20053;-84
2021/04/26 08:21:50;;;;;;;10.57;4.85;;;14.70;50.80;;;;;;5017163;28;20049;-84
2021/04/26 08:24:19;;;;;;;10.90;5.20;;;14.90;50.40;;;;;;5001050;28;20055;-82
2021/04/26 08:26:45;;;;;;;10.43;4.68;;;14.60;51.10;;;;;;5014736;28;20049;-82
2021/04/26 08:29:12;;;;;;;10.68;5.50;;;14.80;49.90;;;;;;5015281;28;20137;-82
2021/04/26 08:31:38;;;;;;;11.93;5.18;;;15.30;48.40;;;;;;5014400;28;20080;-82
2021/04/26 08:34:07;;;;;;;10.48;5.15;;;15.40;49.30;;;;;;5015110;28;20057;-82
2021/04/26 08:36:34;;;;;;;11.98;5.57;;;15.60;49.70;;;;;;5017083;28;20069;-81
2021/04/26 08:39:02;;;;;;;7.55;4.43;;;16.10;47.50;;;;;;5014749;28;20165;-81
2021/04/26 08:41:28;;;;;;;13.20;5.15;;;16.20;47.50;;;;;;5020209;28;20042;-82
2021/04/26 08:43:56;;;;;;;9.55;4.75;;;16.20;46.90;;;;;;5038944;28;20081;-81
2021/04/26 08:46:26;;;;;;;14.32;5.88;;;15.60;46.90;;;;;;5019482;28;20045;-83
2021/04/26 08:48:54;;;;;;;10.90;4.90;;;15.70;48.00;;;;;;5023625;28;20048;-81
2021/04/26 08:51:22;;;;;;;8.90;5.05;;;16.10;48.00;;;;;;5026164;28;20049;-81
2021/04/26 08:53:55;;;;;;;10.18;4.25;;;16.10;47.00;;;;;;5043373;28;20049;-82
2021/04/26 08:56:25;;;;;;;7.43;4.47;;;16.10;47.80;;;;;;5020653;28;20061;-83
2021/04/26 08:58:52;;;;;;;10.82;4.88;;;16.50;46.60;;;;;;5029520;28;20109;-82
2021/04/26 09:01:21;;;;;;;9.57;4.93;;;16.70;45.70;;;;;;5016421;28;20454;-81
2021/04/26 09:03:48;;;;;;;12.55;5.18;;;16.70;45.70;;;;;;5032470;28;20426;-85
2021/04/26 09:06:15;;;;;;;9.75;4.80;;;16.90;46.00;;;;;;4996158;28;20053;-83
2021/04/26 09:08:49;;;;;;;9.68;4.90;;;16.90;45.50;;;;;;5031745;28;20115;-83
2021/04/26 09:11:17;;;;;;;8.40;4.97;;;17.20;45.70;;;;;;5033579;28;20402;-84
2021/04/26 09:13:47;;;;;;;13.60;5.10;;;17.10;44.50;;;;;;5031810;28;20131;-81
2021/04/26 09:16:20;;;;;;;8.05;5.00;;;17.50;45.50;;;;;;5030091;28;20069;-82
2021/04/26 09:19:02;;;;;;;8.38;4.75;;;17.80;45.30;;;;;;5014509;28;20128;-82
2021/04/26 09:21:47;;;;;;;8.27;4.70;;;17.80;44.40;;;;;;5031755;28;20054;-81
2021/04/26 09:24:34;;;;;;;9.70;4.53;;;18.10;43.60;;;;;;5032760;28;20041;-84
2021/04/26 09:27:00;;;;;;;9.38;5.30;;;18.60;40.90;;;;;;5016120;28;20049;-82
2021/04/26 09:29:29;;;;;;;8.32;4.90;;;18.40;42.10;;;;;;5032171;28;20437;-83
2021/04/26 09:32:01;;;;;;;16.98;4.75;;;18.50;43.30;;;;;;5031851;28;20053;-83
2021/04/26 09:34:35;;;;;;;8.88;4.28;;;19.00;42.30;;;;;;5016605;28;20080;-84
2021/04/26 09:37:18;;;;;;;13.90;4.80;;;18.60;42.60;;;;;;5032647;28;20145;-86
2021/04/26 09:40:01;;;;;;;9.23;4.60;;;18.70;42.40;;;;;;5020283;28;20069;-90
2021/04/26 09:42:45;;;;;;;10.45;5.15;;;18.80;43.90;;;;;;5034948;28;20141;-93
2021/04/26 09:45:24;;;;;;;12.50;4.95;;;19.10;42.20;;;;;;5030683;28;20099;-91
2021/04/26 09:48:16;;;;;;;10.85;4.43;;;19.70;43.20;;;;;;5035336;28;20041;-93
2021/04/26 09:50:54;;;;;;;7.88;4.20;;;20.10;41.10;;;;;;5034251;28;20037;-89
2021/04/26 09:53:45;;;;;;;10.80;4.50;;;20.50;38.90;;;;;;5033560;28;20107;-88
2021/04/26 09:56:13;;;;;;;9.83;4.93;;;20.10;39.70;;;;;;5033667;28;20045;-88
2021/04/26 09:58:44;;;;;;;8.25;4.32;;;19.90;39.80;;;;;;5018224;28;20215;-88
2021/04/26 10:01:15;;;;;;;9.60;4.82;;;19.40;40.20;;;;;;5015767;28;20085;-89
2021/04/26 10:03:43;;;;;;;9.50;5.13;;;19.30;38.90;;;;;;5015973;28;20114;-89
2021/04/26 10:06:18;;;;;;;10.63;4.75;;;19.40;39.00;;;;;;5030669;28;20487;-88
2021/04/26 10:08:54;;;;;;;9.70;5.22;;;19.80;37.10;;;;;;5003536;28;20049;-89
2021/04/26 10:11:26;;;;;;;7.60;4.50;;;20.20;38.50;;;;;;5012008;28;20177;-90
2021/04/26 10:14:10;;;;;;;9.13;4.65;;;19.70;38.80;;;;;;5037216;28;20135;-91
2021/04/26 10:16:56;;;;;;;5.38;4.30;;;20.10;38.10;;;;;;5047082;28;20033;-88
2021/04/26 10:19:31;;;;;;;8.13;4.72;;;19.50;37.70;;;;;;5026878;28;20053;-90
2021/04/26 10:22:01;;;;;;;10.07;5.10;;;19.20;38.00;;;;;;5036142;28;20045;-89
2021/04/26 10:24:31;;;;;;;8.32;4.75;;;19.30;38.70;;;;;;5008724;28;20049;-89
2021/04/26 10:27:06;;;;;;;12.10;4.70;;;19.00;39.30;;;;;;5028902;28;20049;-90
2021/04/26 10:29:37;;;;;;;8.38;4.32;;;19.00;39.10;;;;;;5032249;28;20081;-89
2021/04/26 10:32:13;;;;;;;10.23;4.57;;;19.40;38.40;;;;;;5031481;28;20145;-90
2021/04/26 10:34:47;;;;;;;9.20;4.75;;;19.80;38.20;;;;;;5033228;28;20114;-90
2021/04/26 10:37:19;;;;;;;9.73;4.55;;;19.70;36.50;;;;;;5020351;28;20072;-89
2021/04/26 10:39:58;;;;;;;7.72;4.47;;;19.50;36.50;;;;;;5017451;28;20061;-87
2021/04/26 10:42:53;;;;;;;8.48;3.60;;;19.10;37.40;;;;;;5020644;28;20121;-90
2021/04/26 10:45:30;;;;;;;6.55;4.35;;;19.30;37.80;;;;;;5033394;28;20441;-86
2021/04/26 10:48:07;;;;;;;9.18;5.05;;;18.90;37.80;;;;;;5027222;28;20097;-87
2021/04/26 10:50:38;;;;;;;7.03;4.20;;;18.50;37.90;;;;;;5034584;28;20053;-87
2021/04/26 10:53:09;;;;;;;10.85;4.53;;;18.60;36.40;;;;;;5028147;28;20134;-88
2021/04/26 10:56:04;;;;;;;9.32;4.07;;;19.50;36.90;;;;;;5020312;28;20128;-90
2021/04/26 10:58:35;;;;;;;6.47;3.88;;;20.40;35.50;;;;;;5037348;28;20059;-89
2021/04/26 11:01:02;;;;;;;7.18;3.97;;;21.00;36.10;;;;;;5035134;28;20111;-88
2021/04/26 11:03:33;;;;;;;9.85;4.65;;;21.50;34.70;;;;;;5018563;28;20045;-94
2021/04/26 11:06:13;;;;;;;8.40;4.38;;;21.60;34.30;;;;;;5018796;28;20080;-89
2021/04/26 11:11:36;;;;;;;12.60;4.82;;;20.30;35.70;;;;;;5041099;28;20068;-90
2021/04/26 11:14:05;;;;;;;9.77;4.78;;;20.60;36.30;;;;;;5012655;28;20056;-90
2021/04/26 11:16:56;;;;;;;10.85;4.53;;;20.90;35.20;;;;;;5020906;28;20055;-89
2021/04/26 11:20:08;;;;;;;7.45;4.13;;;21.40;34.90;;;;;;5030941;28;20045;-89
2021/04/26 11:22:35;;;;;;;6.57;4.18;;;21.10;34.70;;;;;;5013920;28;20137;-87
2021/04/26 11:25:04;;;;;;;9.60;4.85;;;20.60;34.70;;;;;;5014442;28;20067;-87
2021/04/26 11:27:35;;;;;;;8.10;4.75;;;20.70;35.90;;;;;;5014192;28;20069;-90
2021/04/26 11:30:02;;;;;;;7.95;5.10;;;20.50;35.50;;;;;;5018013;28;20053;-90
2021/04/26 11:32:29;;;;;;;13.57;4.85;;;20.80;33.50;;;;;;5035239;28;20037;-90
2021/04/26 11:34:59;;;;;;;8.18;4.30;;;21.20;34.40;;;;;;5031049;28;20446;-91
2021/04/26 11:37:28;;;;;;;6.70;4.20;;;22.30;32.20;;;;;;5014603;28;20053;-88
2021/04/26 11:39:55;;;;;;;8.60;4.47;;;23.00;32.30;;;;;;5013702;28;20053;-91
2021/04/26 11:42:34;;;;;;;8.15;4.20;;;22.20;31.30;;;;;;5016757;28;20055;-92
2021/04/26 11:45:08;;;;;;;8.00;4.40;;;21.60;32.80;;;;;;5014835;28;20045;-90
2021/04/26 11:47:34;;;;;;;9.48;4.50;;;21.70;35.50;;;;;;5015558;28;20060;-90
2021/04/26 11:50:04;;;;;;;6.65;4.88;;;22.50;33.20;;;;;;5028343;28;20056;-90
2021/04/26 11:52:38;;;;;;;8.07;4.63;;;22.90;34.40;;;;;;5015231;28;20049;-90
2021/04/26 11:55:18;;;;;;;6.30;4.43;;;23.10;32.20;;;;;;5030903;28;20045;-89
2021/04/26 11:57:56;;;;;;;7.38;4.50;;;22.50;29.70;;;;;;5011079;28;20129;-92
2021/04/26 12:00:27;;;;;;;7.53;4.00;;;22.30;31.60;;;;;;5032251;28;20065;-92
2021/04/26 12:03:09;;;;;;;10.05;4.30;;;22.50;30.00;;;;;;5029344;28;20073;-88
2021/04/26 12:05:42;;;;;;;11.52;4.75;;;21.60;31.00;;;;;;5013548;28;20049;-86
2021/04/26 12:08:09;;;;;;;10.70;4.78;;;21.60;31.70;;;;;;5016695;28;20117;-87
2021/04/26 12:10:44;;;;;;;8.38;4.60;;;21.60;32.90;;;;;;5035507;28;20042;-87
2021/04/26 12:13:12;;;;;;;12.98;4.60;;;22.10;33.40;;;;;;5017236;28;20103;-88
2021/04/26 12:15:47;;;;;;;7.25;3.90;;;22.60;31.40;;;;;;5038484;28;20056;-88
2021/04/26 12:18:19;;;;;;;8.00;3.80;;;22.80;30.90;;;;;;5026208;28;20049;-90
2021/04/26 12:20:48;;;;;;;9.50;4.20;;;23.60;32.20;;;;;;5021186;28;20446;-91
2021/04/26 12:23:19;;;;;;;6.90;3.75;;;22.90;30.30;;;;;;5024877;28;20046;-88
2021/04/26 12:25:51;;;;;;;8.18;3.92;;;22.80;31.10;;;;;;5017587;28;20367;-88
2021/04/26 12:28:19;;;;;;;7.68;3.88;;;22.90;31.80;;;;;;4997618;28;20382;-89
2021/04/26 12:30:47;;;;;;;8.00;4.10;;;23.10;30.20;;;;;;5032517;28;20447;-92
2021/04/26 12:33:30;;;;;;;8.63;4.60;;;22.30;30.20;;;;;;5034747;28;20116;-89
2021/04/26 12:36:02;;;;;;;9.38;4.88;;;21.30;31.20;;;;;;5044223;28;20117;-92
2021/04/26 12:38:38;;;;;;;8.15;3.55;;;21.80;31.70;;;;;;5018322;28;20107;-89
2021/04/26 12:41:12;;;;;;;5.70;3.88;;;21.80;32.60;;;;;;5021773;28;20042;-91
2021/04/26 12:43:41;;;;;;;8.25;3.95;;;22.50;31.80;;;;;;5026377;28;20045;-89
2021/04/26 12:46:12;;;;;;;5.90;3.83;;;22.70;30.00;;;;;;5017356;28;20076;-89
2021/04/26 12:48:41;;;;;;;8.05;3.80;;;23.00;29.90;;;;;;5019141;28;20111;-91
2021/04/26 12:51:11;;;;;;;9.70;3.85;;;22.60;29.90;;;;;;5042251;28;20045;-91
2021/04/26 12:53:39;;;;;;;7.10;4.00;;;22.20;29.40;;;;;;5017642;28;20060;-89
2021/04/26 12:56:17;;;;;;;6.72;3.88;;;22.20;29.00;;;;;;5044269;28;20051;-90
2021/04/26 12:58:50;;;;;;;8.05;3.83;;;22.90;29.40;;;;;;5033323;28;20042;-90
2021/04/26 13:01:29;;;;;;;13.25;3.55;;;23.40;28.40;;;;;;5015405;28;20049;-92
2021/04/26 13:04:04;;;;;;;13.20;3.80;;;23.50;28.20;;;;;;5022051;28;20480;-90
2021/04/26 13:06:38;;;;;;;5.68;3.53;;;23.50;28.20;;;;;;5022427;28;20042;-90